Dunnsville, Virginia
Current Conditions -  °F | °C
As of 8:55 PM on Saturday 25 Oct 2014 (Local Time) from KXSA Reporting Station
Clear Clear  
Wind Chill: 60°   Ceiling: Unl
Heat Index: 60°   Visibility: 10mi
Dew Point: 38°   Wind: 6mph
Humidity: 45%   Direction: 200°SSW
Pressure: 29.79"   Gusts: NA
Location:  37.86°N, 76.82°W
Report Text: KXSA 260055Z AUTO 20005KT 10SM CLR 16/04 A2979 RMK AO2 T01560036
Loading
Personal Weather Stations






























Interactive Weather Map
Tropical Storm Tracking
New forecast layout! Learn more

10-Day Weather Forecast

Advertisements
Track Severe Weather on mobile